AAR8198 RKPC-RKJY
Flight info
| Callsign | AAR8198 |
|---|---|
| Flight time | 0h 31m |
| Altitude | 15000 |
| Route | AKPON1W AKPON Y571 NISAV NISAV1C |
| Aircraft | A321/M-SDE3FGHIRWY/LB1 |
Departure
| Time | 2026-04-26 14:48 |
|---|---|
| Airport | Jeju International Airport (RKPC) |
Arrival
| Time | 2026-04-26 15:19 |
|---|---|
| Airport | Yeosu Airport (RKJY) |
| Time | Latitude | Longitude | Altitude | Speed | Heading |
|---|---|---|---|---|---|
| 2026-04-26 14:23 | 33.50907 | 126.49198 | 89 ft | 0 kts | 329° |
| 2026-04-26 14:43 | 33.50909 | 126.49196 | 91 ft | 2 kts | 329° |
| 2026-04-26 14:43 | 33.50941 | 126.49173 | 92 ft | 8 kts | 329° |
| 2026-04-26 14:43 | 33.50993 | 126.49176 | 90 ft | 8 kts | 53° |
| 2026-04-26 14:44 | 33.51026 | 126.49238 | 91 ft | 9 kts | 58° |
| 2026-04-26 14:44 | 33.51060 | 126.49304 | 90 ft | 10 kts | 58° |
| 2026-04-26 14:44 | 33.51097 | 126.49375 | 90 ft | 11 kts | 58° |
| 2026-04-26 14:44 | 33.51142 | 126.49463 | 90 ft | 13 kts | 58° |
| 2026-04-26 14:45 | 33.51189 | 126.49546 | 89 ft | 11 kts | 35° |
| 2026-04-26 14:45 | 33.51244 | 126.49539 | 90 ft | 13 kts | 330° |
| 2026-04-26 14:45 | 33.51307 | 126.49417 | 86 ft | 12 kts | 268° |
| 2026-04-26 14:45 | 33.51292 | 126.49378 | 89 ft | 0 kts | 240° |
| 2026-04-26 14:47 | 33.51291 | 126.49375 | 89 ft | 3 kts | 240° |
| 2026-04-26 14:47 | 33.51164 | 126.49126 | 87 ft | 72 kts | 238° |
| 2026-04-26 14:47 | 33.50782 | 126.48384 | 94 ft | 135 kts | 238° |
| 2026-04-26 14:47 | 33.50211 | 126.47278 | 302 ft | 164 kts | 237° |
| 2026-04-26 14:48 | 33.49621 | 126.46149 | 1105 ft | 159 kts | 240° |
| 2026-04-26 14:48 | 33.49035 | 126.45019 | 1833 ft | 162 kts | 241° |
| 2026-04-26 14:48 | 33.48408 | 126.43791 | 2183 ft | 185 kts | 241° |
| 2026-04-26 14:48 | 33.47699 | 126.42398 | 2466 ft | 206 kts | 240° |
| 2026-04-26 14:49 | 33.46903 | 126.40848 | 2652 ft | 231 kts | 240° |
| 2026-04-26 14:49 | 33.46014 | 126.39121 | 3055 ft | 252 kts | 240° |
| 2026-04-26 14:49 | 33.45078 | 126.37305 | 3803 ft | 259 kts | 240° |
| 2026-04-26 14:49 | 33.44126 | 126.35463 | 4594 ft | 262 kts | 238° |
| 2026-04-26 14:50 | 33.42876 | 126.33861 | 5291 ft | 270 kts | 211° |
| 2026-04-26 14:50 | 33.41054 | 126.33304 | 5973 ft | 278 kts | 178° |
| 2026-04-26 14:50 | 33.39117 | 126.33581 | 6746 ft | 282 kts | 173° |
| 2026-04-26 14:50 | 33.37170 | 126.33950 | 7489 ft | 285 kts | 172° |
| 2026-04-26 14:51 | 33.35197 | 126.34341 | 8196 ft | 290 kts | 172° |
| 2026-04-26 14:51 | 33.33203 | 126.34804 | 8875 ft | 295 kts | 162° |
| 2026-04-26 14:51 | 33.31422 | 126.36036 | 9556 ft | 301 kts | 135° |
| 2026-04-26 14:51 | 33.30255 | 126.38100 | 10177 ft | 304 kts | 108° |
| 2026-04-26 14:52 | 33.29945 | 126.40606 | 10442 ft | 320 kts | 83° |
| 2026-04-26 14:52 | 33.30243 | 126.43324 | 10570 ft | 341 kts | 80° |
| 2026-04-26 14:52 | 33.30603 | 126.46241 | 10934 ft | 356 kts | 80° |
| 2026-04-26 14:52 | 33.30959 | 126.49149 | 11497 ft | 361 kts | 80° |
| 2026-04-26 14:53 | 33.31315 | 126.52139 | 12071 ft | 365 kts | 80° |
| 2026-04-26 14:53 | 33.31666 | 126.55163 | 12660 ft | 369 kts | 81° |
| 2026-04-26 14:53 | 33.32199 | 126.58170 | 13232 ft | 372 kts | 70° |
| 2026-04-26 14:53 | 33.33201 | 126.61018 | 13800 ft | 373 kts | 59° |
| 2026-04-26 14:54 | 33.34589 | 126.63641 | 14315 ft | 375 kts | 54° |
| 2026-04-26 14:54 | 33.36040 | 126.66258 | 14797 ft | 380 kts | 54° |
| 2026-04-26 14:54 | 33.37501 | 126.68905 | 14956 ft | 382 kts | 54° |
| 2026-04-26 14:54 | 33.38976 | 126.71582 | 14997 ft | 387 kts | 54° |
| 2026-04-26 14:55 | 33.40461 | 126.74280 | 14991 ft | 389 kts | 54° |
| 2026-04-26 14:55 | 33.41948 | 126.76988 | 14994 ft | 389 kts | 54° |
| 2026-04-26 14:55 | 33.43434 | 126.79699 | 14996 ft | 389 kts | 54° |
| 2026-04-26 14:55 | 33.44921 | 126.82411 | 14994 ft | 389 kts | 54° |
| 2026-04-26 14:56 | 33.46407 | 126.85119 | 14994 ft | 389 kts | 54° |
| 2026-04-26 14:56 | 33.47893 | 126.87830 | 15000 ft | 389 kts | 54° |
| 2026-04-26 14:56 | 33.49377 | 126.90548 | 14992 ft | 389 kts | 54° |
| 2026-04-26 14:56 | 33.50859 | 126.93258 | 14997 ft | 389 kts | 54° |
| 2026-04-26 14:57 | 33.52340 | 126.95966 | 14995 ft | 389 kts | 54° |
| 2026-04-26 14:57 | 33.53817 | 126.98675 | 14995 ft | 389 kts | 54° |
| 2026-04-26 14:57 | 33.55297 | 127.01391 | 14993 ft | 388 kts | 54° |
| 2026-04-26 14:57 | 33.56773 | 127.04102 | 14988 ft | 389 kts | 54° |
| 2026-04-26 14:58 | 33.58325 | 127.06694 | 14991 ft | 386 kts | 46° |
| 2026-04-26 14:58 | 33.60115 | 127.09087 | 14984 ft | 386 kts | 45° |
| 2026-04-26 14:58 | 33.61913 | 127.11477 | 14986 ft | 386 kts | 45° |
| 2026-04-26 14:58 | 33.63712 | 127.13873 | 14988 ft | 386 kts | 45° |
| 2026-04-26 14:59 | 33.65506 | 127.16274 | 14985 ft | 386 kts | 45° |
| 2026-04-26 14:59 | 33.67297 | 127.18677 | 14991 ft | 387 kts | 45° |
| 2026-04-26 14:59 | 33.69087 | 127.21084 | 14993 ft | 387 kts | 46° |
| 2026-04-26 14:59 | 33.70274 | 127.22682 | 14997 ft | 387 kts | 45° |
| 2026-04-26 15:00 | 33.72668 | 127.25902 | 14994 ft | 387 kts | 46° |
| 2026-04-26 15:00 | 33.74458 | 127.28312 | 14998 ft | 386 kts | 46° |
| 2026-04-26 15:00 | 33.76247 | 127.30723 | 15011 ft | 386 kts | 46° |
| 2026-04-26 15:00 | 33.78037 | 127.33133 | 15007 ft | 386 kts | 46° |
| 2026-04-26 15:01 | 33.79824 | 127.35540 | 15007 ft | 386 kts | 46° |
| 2026-04-26 15:01 | 33.81611 | 127.37947 | 15000 ft | 386 kts | 46° |
| 2026-04-26 15:01 | 33.83401 | 127.40352 | 15006 ft | 386 kts | 46° |
| 2026-04-26 15:01 | 33.85190 | 127.42755 | 14999 ft | 386 kts | 46° |
| 2026-04-26 15:02 | 33.86976 | 127.45161 | 14992 ft | 386 kts | 46° |
| 2026-04-26 15:02 | 33.88758 | 127.47574 | 14995 ft | 386 kts | 46° |
| 2026-04-26 15:02 | 33.90535 | 127.49988 | 15000 ft | 386 kts | 46° |
| 2026-04-26 15:02 | 33.92315 | 127.52408 | 14998 ft | 386 kts | 46° |
| 2026-04-26 15:03 | 33.94067 | 127.54788 | 14957 ft | 372 kts | 46° |
| 2026-04-26 15:03 | 33.95752 | 127.57075 | 14835 ft | 358 kts | 46° |
| 2026-04-26 15:03 | 33.97379 | 127.59280 | 14688 ft | 346 kts | 46° |
| 2026-04-26 15:03 | 33.98965 | 127.61424 | 14367 ft | 340 kts | 46° |
| 2026-04-26 15:04 | 34.00534 | 127.63546 | 14005 ft | 337 kts | 46° |
| 2026-04-26 15:04 | 34.02086 | 127.65648 | 13621 ft | 334 kts | 46° |
| 2026-04-26 15:04 | 34.03622 | 127.67733 | 13201 ft | 331 kts | 46° |
| 2026-04-26 15:04 | 34.05144 | 127.69803 | 12791 ft | 328 kts | 46° |
| 2026-04-26 15:05 | 34.06633 | 127.71831 | 12396 ft | 326 kts | 46° |
| 2026-04-26 15:05 | 34.07647 | 127.73212 | 12107 ft | 325 kts | 46° |
| 2026-04-26 15:05 | 34.09629 | 127.75908 | 11543 ft | 323 kts | 46° |
| 2026-04-26 15:05 | 34.11116 | 127.77929 | 11141 ft | 321 kts | 46° |
| 2026-04-26 15:06 | 34.12596 | 127.79940 | 10742 ft | 319 kts | 46° |
| 2026-04-26 15:06 | 34.14065 | 127.81939 | 10351 ft | 318 kts | 47° |
| 2026-04-26 15:06 | 34.15526 | 127.83934 | 9952 ft | 317 kts | 46° |
| 2026-04-26 15:06 | 34.16963 | 127.85900 | 9794 ft | 306 kts | 47° |
| 2026-04-26 15:07 | 34.19707 | 127.89659 | 9299 ft | 294 kts | 47° |
| 2026-04-26 15:07 | 34.21053 | 127.91501 | 8951 ft | 291 kts | 47° |
| 2026-04-26 15:07 | 34.22389 | 127.93331 | 8588 ft | 290 kts | 47° |
| 2026-04-26 15:08 | 34.23834 | 127.94994 | 8249 ft | 285 kts | 31° |
| 2026-04-26 15:08 | 34.25639 | 127.95900 | 7927 ft | 280 kts | 9° |
| 2026-04-26 15:08 | 34.27562 | 127.95915 | 7568 ft | 277 kts | 348° |
| 2026-04-26 15:08 | 34.29344 | 127.95088 | 7220 ft | 275 kts | 330° |
| 2026-04-26 15:09 | 34.31013 | 127.93959 | 6851 ft | 275 kts | 331° |
| 2026-04-26 15:09 | 34.32681 | 127.92831 | 6495 ft | 275 kts | 331° |
| 2026-04-26 15:09 | 34.34350 | 127.91705 | 6138 ft | 274 kts | 331° |
| 2026-04-26 15:09 | 34.36005 | 127.90588 | 5944 ft | 271 kts | 332° |
| 2026-04-26 15:10 | 34.37662 | 127.89472 | 5953 ft | 274 kts | 332° |
| 2026-04-26 15:10 | 34.38766 | 127.88727 | 5948 ft | 274 kts | 332° |
| 2026-04-26 15:10 | 34.40993 | 127.87217 | 5768 ft | 274 kts | 332° |
| 2026-04-26 15:10 | 34.42655 | 127.86092 | 5664 ft | 274 kts | 332° |
| 2026-04-26 15:11 | 34.44320 | 127.84967 | 5546 ft | 273 kts | 332° |
| 2026-04-26 15:11 | 34.45976 | 127.83847 | 5411 ft | 272 kts | 331° |
| 2026-04-26 15:11 | 34.47629 | 127.82728 | 5279 ft | 271 kts | 331° |
| 2026-04-26 15:11 | 34.49274 | 127.81615 | 5145 ft | 271 kts | 332° |
| 2026-04-26 15:12 | 34.50915 | 127.80505 | 5017 ft | 270 kts | 332° |
| 2026-04-26 15:12 | 34.52554 | 127.79394 | 4885 ft | 269 kts | 331° |
| 2026-04-26 15:12 | 34.54164 | 127.78304 | 4742 ft | 268 kts | 331° |
| 2026-04-26 15:12 | 34.55775 | 127.77211 | 4546 ft | 261 kts | 331° |
| 2026-04-26 15:13 | 34.57328 | 127.76156 | 4416 ft | 251 kts | 331° |
| 2026-04-26 15:13 | 34.58826 | 127.75137 | 4286 ft | 242 kts | 330° |
| 2026-04-26 15:13 | 34.60267 | 127.74157 | 4136 ft | 233 kts | 330° |
| 2026-04-26 15:13 | 34.61677 | 127.73200 | 4020 ft | 231 kts | 330° |
| 2026-04-26 15:14 | 34.63065 | 127.72242 | 3948 ft | 229 kts | 330° |
| 2026-04-26 15:14 | 34.64453 | 127.71405 | 3876 ft | 216 kts | 335° |
| 2026-04-26 15:14 | 34.65818 | 127.70714 | 3666 ft | 209 kts | 337° |
| 2026-04-26 15:14 | 34.67155 | 127.70063 | 3410 ft | 205 kts | 337° |
| 2026-04-26 15:15 | 34.68462 | 127.69427 | 3154 ft | 200 kts | 336° |
| 2026-04-26 15:15 | 34.69726 | 127.68812 | 2912 ft | 191 kts | 336° |
| 2026-04-26 15:15 | 34.70930 | 127.68225 | 2653 ft | 182 kts | 336° |
| 2026-04-26 15:15 | 34.72074 | 127.67667 | 2410 ft | 172 kts | 336° |
| 2026-04-26 15:16 | 34.73157 | 127.67139 | 2189 ft | 162 kts | 336° |
| 2026-04-26 15:16 | 34.74149 | 127.66655 | 2004 ft | 148 kts | 336° |
| 2026-04-26 15:16 | 34.75086 | 127.66197 | 1793 ft | 143 kts | 336° |
| 2026-04-26 15:16 | 34.76002 | 127.65750 | 1611 ft | 142 kts | 337° |
| 2026-04-26 15:17 | 34.76917 | 127.65303 | 1409 ft | 142 kts | 336° |
| 2026-04-26 15:17 | 34.77523 | 127.65007 | 1287 ft | 141 kts | 336° |
| 2026-04-26 15:17 | 34.78739 | 127.64413 | 1033 ft | 140 kts | 336° |
| 2026-04-26 15:17 | 34.79647 | 127.63969 | 825 ft | 141 kts | 336° |
| 2026-04-26 15:18 | 34.80560 | 127.63525 | 676 ft | 143 kts | 337° |
| 2026-04-26 15:18 | 34.81484 | 127.63070 | 478 ft | 144 kts | 336° |
| 2026-04-26 15:18 | 34.82413 | 127.62606 | 294 ft | 145 kts | 336° |
| 2026-04-26 15:18 | 34.83358 | 127.62153 | 84 ft | 145 kts | 336° |
| 2026-04-26 15:19 | 34.84205 | 127.61736 | 96 ft | 107 kts | 338° |
| 2026-04-26 15:19 | 34.84637 | 127.61526 | 84 ft | 43 kts | 338° |
| 2026-04-26 15:19 | 34.84892 | 127.61402 | 59 ft | 30 kts | 338° |
| 2026-04-26 15:19 | 34.85032 | 127.61309 | 47 ft | 20 kts | 307° |
| 2026-04-26 15:20 | 34.85094 | 127.61302 | 38 ft | 3 kts | 71° |
| 2026-04-26 15:20 | 34.85074 | 127.61317 | 41 ft | 7 kts | 165° |
| 2026-04-26 15:20 | 34.85010 | 127.61345 | 48 ft | 14 kts | 158° |
| 2026-04-26 15:20 | 34.84920 | 127.61389 | 56 ft | 14 kts | 158° |
| 2026-04-26 15:21 | 34.84829 | 127.61433 | 66 ft | 15 kts | 158° |
| 2026-04-26 15:21 | 34.84719 | 127.61487 | 71 ft | 19 kts | 158° |
| 2026-04-26 15:21 | 34.84602 | 127.61518 | 89 ft | 14 kts | 208° |
| 2026-04-26 15:21 | 34.84558 | 127.61415 | 91 ft | 14 kts | 247° |
| 2026-04-26 15:22 | 34.84501 | 127.61344 | 90 ft | 11 kts | 179° |
| 2026-04-26 15:22 | 34.84439 | 127.61370 | 94 ft | 8 kts | 158° |
| 2026-04-26 15:22 | 34.84381 | 127.61398 | 94 ft | 10 kts | 158° |
| 2026-04-26 15:22 | 34.84307 | 127.61435 | 98 ft | 14 kts | 159° |
| 2026-04-26 15:23 | 34.84208 | 127.61482 | 96 ft | 16 kts | 158° |
| 2026-04-26 15:23 | 34.84099 | 127.61536 | 97 ft | 18 kts | 158° |
| 2026-04-26 15:23 | 34.84021 | 127.61574 | 92 ft | 8 kts | 158° |
| 2026-04-26 15:23 | 34.83987 | 127.61571 | 92 ft | 2 kts | 266° |
| 2026-04-26 15:24 | 34.83994 | 127.61547 | 92 ft | 3 kts | 292° |
| 2026-04-26 15:24 | 34.84000 | 127.61528 | 90 ft | 2 kts | 292° |
| 2026-04-26 15:24 | 34.84006 | 127.61512 | 90 ft | 3 kts | 292° |
| 2026-04-26 15:24 | 34.84013 | 127.61491 | 92 ft | 2 kts | 293° |
| 2026-04-26 15:25 | 34.84018 | 127.61478 | 94 ft | 1 kts | 293° |